Time;durP1;ratioP1;P1;durP2;ratioP2;P2;SDS_P1;SDS_P2;PMS_P1;PMS_P2;Temp;Humidity;BMP_temperature;BMP_pressure;BME280_temperature;BME280_humidity;BME280_pressure;Samples;Min_cycle;Max_cycle;Signal;HPM_P1;HPM_P2
2023/08/17 00:00:01;;;;;;;0.10;0.10;;;21.20;99.90;;;;;;5103354;28;20043;-71
2023/08/17 00:02:27;;;;;;;0.63;0.63;;;21.10;99.90;;;;;;5098602;28;20046;-70
2023/08/17 00:04:52;;;;;;;0.10;0.10;;;21.10;99.90;;;;;;5098636;28;20036;-71
2023/08/17 00:07:18;;;;;;;0.00;0.00;;;21.10;99.90;;;;;;5102045;28;20042;-72
2023/08/17 00:09:44;;;;;;;0.30;0.30;;;21.10;99.90;;;;;;5100846;28;20028;-70
2023/08/17 00:12:10;;;;;;;0.15;0.15;;;21.10;99.90;;;;;;5095871;28;20024;-72
2023/08/17 00:14:35;;;;;;;0.00;0.00;;;20.90;99.90;;;;;;5097623;28;20028;-76
2023/08/17 00:17:02;;;;;;;0.30;0.10;;;21.00;99.90;;;;;;5097200;28;20020;-71
2023/08/17 00:19:28;;;;;;;0.00;0.00;;;21.00;99.90;;;;;;5100314;28;20016;-71
2023/08/17 00:21:55;;;;;;;0.22;0.22;;;21.00;99.90;;;;;;5088611;28;20437;-71
2023/08/17 00:24:21;;;;;;;0.00;0.00;;;21.00;99.90;;;;;;5100438;28;20027;-71
2023/08/17 00:26:46;;;;;;;0.00;0.00;;;21.10;99.90;;;;;;5100967;28;20031;-72
2023/08/17 00:29:14;;;;;;;0.00;0.00;;;21.00;99.90;;;;;;5102278;28;20167;-72
2023/08/17 00:31:41;;;;;;;9.43;0.80;;;20.90;99.90;;;;;;5110117;28;20016;-70
2023/08/17 00:34:06;;;;;;;0.00;0.00;;;20.90;99.90;;;;;;5068839;28;20071;-71
2023/08/17 00:36:32;;;;;;;0.00;0.00;;;20.80;99.90;;;;;;5088730;28;20020;-70
2023/08/17 00:38:58;;;;;;;0.00;0.00;;;20.90;99.90;;;;;;5094528;28;20028;-71
2023/08/17 00:41:24;;;;;;;0.00;0.00;;;20.80;99.90;;;;;;5093338;28;20024;-71
2023/08/17 00:43:50;;;;;;;0.30;0.30;;;20.70;99.90;;;;;;5093099;28;20024;-71
2023/08/17 00:46:17;;;;;;;0.00;0.00;;;20.70;99.90;;;;;;5104421;28;20118;-71
2023/08/17 00:48:43;;;;;;;0.20;0.20;;;20.70;99.90;;;;;;5096858;28;20019;-71
2023/08/17 00:51:09;;;;;;;0.13;0.13;;;20.60;99.90;;;;;;5094235;28;20488;-70
2023/08/17 00:53:35;;;;;;;0.00;0.00;;;20.50;99.90;;;;;;5098881;28;20012;-78
2023/08/17 00:56:02;;;;;;;0.00;0.00;;;20.60;99.90;;;;;;5098314;28;20575;-72
2023/08/17 00:58:28;;;;;;;0.00;0.00;;;20.50;99.90;;;;;;5102761;28;20463;-72
2023/08/17 01:00:54;;;;;;;0.00;0.00;;;20.60;99.90;;;;;;5100327;28;20073;-71
2023/08/17 01:03:21;;;;;;;0.00;0.00;;;20.60;99.90;;;;;;5106691;28;20020;-76
2023/08/17 01:05:47;;;;;;;0.00;0.00;;;20.70;99.90;;;;;;5105151;28;20036;-71
2023/08/17 01:08:13;;;;;;;0.32;0.32;;;20.60;99.90;;;;;;5109825;28;20028;-72
2023/08/17 01:11:08;;;;;;;0.05;0.05;;;20.50;99.90;;;;;;5099876;28;20071;-73
2023/08/17 01:13:41;;;;;;;0.00;0.00;;;20.70;99.90;;;;;;5092570;28;20089;-71
2023/08/17 01:16:14;;;;;;;0.20;0.20;;;20.60;99.90;;;;;;5099291;28;20016;-71
2023/08/17 01:18:43;;;;;;;0.17;0.17;;;20.50;99.90;;;;;;5097563;28;20056;-76
2023/08/17 01:21:13;;;;;;;0.00;0.00;;;20.40;99.90;;;;;;5102393;28;20436;-72
2023/08/17 01:23:39;;;;;;;0.00;0.00;;;20.40;99.90;;;;;;5072519;28;20504;-79
2023/08/17 01:26:05;;;;;;;0.00;0.00;;;20.30;99.90;;;;;;5106111;28;20081;-72
2023/08/17 01:28:31;;;;;;;0.00;0.00;;;20.30;99.90;;;;;;5102815;28;20115;-78
2023/08/17 01:31:07;;;;;;;0.30;0.30;;;20.30;99.90;;;;;;5108897;28;20055;-72
2023/08/17 01:33:48;;;;;;;0.50;0.50;;;20.40;99.90;;;;;;5090479;28;20028;-77
2023/08/17 01:36:20;;;;;;;0.00;0.00;;;20.50;99.90;;;;;;5111579;28;20019;-71
2023/08/17 01:38:46;;;;;;;5.88;1.38;;;20.70;99.90;;;;;;5107173;28;20471;-74
2023/08/17 01:41:15;;;;;;;0.00;0.00;;;20.60;99.90;;;;;;5094646;28;20028;-71
2023/08/17 01:43:46;;;;;;;0.30;0.15;;;20.40;99.90;;;;;;5107202;28;20020;-71
2023/08/17 01:46:16;;;;;;;0.10;0.10;;;20.40;99.90;;;;;;5111069;28;20654;-71
2023/08/17 01:48:42;;;;;;;0.00;0.00;;;20.40;99.90;;;;;;5108682;28;20072;-72
2023/08/17 01:51:08;;;;;;;0.10;0.10;;;20.50;99.90;;;;;;5104648;28;20471;-71
2023/08/17 01:53:34;;;;;;;0.15;0.15;;;20.60;99.90;;;;;;5109565;28;20144;-72
2023/08/17 01:56:00;;;;;;;0.10;0.10;;;20.60;99.90;;;;;;5108553;28;20037;-86
2023/08/17 01:58:26;;;;;;;5.72;0.45;;;20.40;99.90;;;;;;5111086;28;20023;-79
2023/08/17 02:00:52;;;;;;;0.40;0.17;;;20.30;99.90;;;;;;5092341;28;20027;-71
2023/08/17 02:03:18;;;;;;;0.13;0.13;;;20.20;99.90;;;;;;5110083;28;20035;-72
2023/08/17 02:05:47;;;;;;;0.00;0.00;;;20.00;99.90;;;;;;5109357;28;20819;-80
2023/08/17 02:08:14;;;;;;;0.10;0.10;;;20.00;99.90;;;;;;5091796;28;20024;-71
2023/08/17 02:10:40;;;;;;;0.32;0.20;;;20.10;99.90;;;;;;5108847;28;20280;-72
2023/08/17 02:13:06;;;;;;;0.00;0.00;;;20.00;99.90;;;;;;5111176;28;20028;-71
2023/08/17 02:15:31;;;;;;;0.08;0.08;;;19.90;99.90;;;;;;5108251;28;20027;-71
2023/08/17 02:18:01;;;;;;;1.25;0.43;;;20.00;99.90;;;;;;5107510;28;20110;-71
2023/08/17 02:20:28;;;;;;;0.10;0.10;;;19.90;99.90;;;;;;5104652;28;20543;-73
2023/08/17 02:22:54;;;;;;;1.10;1.00;;;19.70;99.90;;;;;;5110000;28;20102;-73
2023/08/17 02:25:19;;;;;;;0.10;0.10;;;19.90;99.90;;;;;;5109652;28;20406;-73
2023/08/17 02:27:45;;;;;;;0.00;0.00;;;20.00;99.90;;;;;;5109616;28;20034;-71
2023/08/17 02:30:12;;;;;;;0.10;0.10;;;20.10;99.90;;;;;;5099833;28;20052;-73
2023/08/17 02:32:38;;;;;;;0.00;0.00;;;20.00;99.90;;;;;;5104729;28;20024;-71
2023/08/17 02:35:04;;;;;;;0.00;0.00;;;20.00;99.90;;;;;;5109320;28;20387;-71
2023/08/17 02:37:29;;;;;;;0.00;0.00;;;19.70;99.90;;;;;;5091791;28;20027;-71
2023/08/17 02:39:55;;;;;;;0.10;0.10;;;19.80;99.90;;;;;;5106439;28;20084;-71
2023/08/17 02:42:21;;;;;;;0.00;0.00;;;19.80;99.90;;;;;;5106225;28;20024;-71
2023/08/17 02:44:47;;;;;;;0.20;0.20;;;19.70;99.90;;;;;;5091587;28;20049;-71
2023/08/17 02:47:13;;;;;;;0.10;0.10;;;19.80;99.90;;;;;;5107242;28;20126;-70
2023/08/17 02:49:39;;;;;;;0.00;0.00;;;19.80;99.90;;;;;;5109786;28;20054;-71
2023/08/17 02:52:05;;;;;;;0.00;0.00;;;19.80;99.90;;;;;;5109785;28;20085;-71
2023/08/17 02:54:31;;;;;;;0.03;0.03;;;19.90;99.90;;;;;;5108998;28;20020;-71
2023/08/17 02:56:57;;;;;;;0.00;0.00;;;19.80;99.90;;;;;;5107850;28;20015;-70
2023/08/17 02:59:23;;;;;;;0.00;0.00;;;19.90;99.90;;;;;;5106326;28;20031;-71
2023/08/17 03:01:49;;;;;;;0.22;0.22;;;19.80;99.90;;;;;;5109892;28;20072;-71
2023/08/17 03:04:15;;;;;;;0.00;0.00;;;19.80;99.90;;;;;;5109198;28;20036;-71
2023/08/17 03:06:41;;;;;;;0.00;0.00;;;19.70;99.90;;;;;;5110187;28;20490;-71
2023/08/17 03:09:06;;;;;;;0.00;0.00;;;19.80;99.90;;;;;;5107239;28;20372;-70
2023/08/17 03:11:34;;;;;;;0.60;0.60;;;19.70;99.90;;;;;;5107820;28;20047;-72
2023/08/17 03:14:00;;;;;;;0.52;0.30;;;19.60;99.90;;;;;;5109712;28;20124;-71
2023/08/17 03:16:27;;;;;;;0.98;0.28;;;19.70;99.90;;;;;;5107114;28;20381;-71
2023/08/17 03:18:53;;;;;;;0.10;0.10;;;19.70;99.90;;;;;;5108845;28;20102;-70
2023/08/17 03:21:19;;;;;;;0.00;0.00;;;19.70;99.90;;;;;;5110316;28;20542;-71
2023/08/17 03:23:47;;;;;;;0.00;0.00;;;19.60;99.90;;;;;;5109821;28;20476;-70
2023/08/17 03:26:13;;;;;;;0.32;0.32;;;19.60;99.90;;;;;;5107777;28;20032;-71
2023/08/17 03:28:39;;;;;;;0.85;0.65;;;19.60;99.90;;;;;;5106934;28;20375;-71
2023/08/17 03:31:07;;;;;;;0.00;0.00;;;19.60;99.90;;;;;;5108885;28;20047;-71
2023/08/17 03:33:33;;;;;;;0.00;0.00;;;19.60;99.90;;;;;;5107310;28;20038;-71
2023/08/17 03:35:59;;;;;;;11.05;0.63;;;19.60;99.90;;;;;;5108881;28;20051;-71
2023/08/17 03:38:26;;;;;;;0.00;0.00;;;19.70;99.90;;;;;;5093344;28;20024;-71
2023/08/17 03:40:52;;;;;;;0.35;0.35;;;19.80;99.90;;;;;;5092199;28;20103;-71
2023/08/17 03:43:22;;;;;;;0.15;0.10;;;19.60;99.90;;;;;;5094497;28;20027;-71
2023/08/17 03:45:48;;;;;;;0.00;0.00;;;19.60;99.90;;;;;;5094062;28;20432;-71
2023/08/17 03:48:14;;;;;;;0.05;0.05;;;19.60;99.90;;;;;;5095664;28;20078;-72
2023/08/17 03:50:40;;;;;;;0.10;0.10;;;19.60;99.90;;;;;;5094124;28;20012;-71
2023/08/17 03:53:05;;;;;;;0.00;0.00;;;19.60;99.90;;;;;;5094484;28;20500;-72
2023/08/17 03:55:31;;;;;;;0.30;0.30;;;19.50;99.90;;;;;;5095195;28;20451;-71
2023/08/17 03:57:57;;;;;;;0.70;0.70;;;19.50;99.90;;;;;;5094483;28;20024;-71
2023/08/17 04:00:23;;;;;;;0.10;0.10;;;19.50;99.90;;;;;;5104767;28;20487;-71
2023/08/17 04:02:55;;;;;;;0.00;0.00;;;19.50;99.90;;;;;;5100681;28;20035;-72
2023/08/17 04:05:20;;;;;;;3.83;1.20;;;19.60;99.90;;;;;;5107668;28;20035;-71
2023/08/17 04:07:47;;;;;;;0.38;0.13;;;19.50;99.90;;;;;;5098427;28;20081;-71
2023/08/17 04:10:13;;;;;;;0.00;0.00;;;19.40;99.90;;;;;;5109987;28;20008;-71
2023/08/17 04:12:39;;;;;;;0.00;0.00;;;19.40;99.90;;;;;;5101997;28;20031;-72
2023/08/17 04:15:05;;;;;;;0.20;0.20;;;19.50;99.90;;;;;;5109965;28;20025;-72
2023/08/17 04:17:31;;;;;;;0.00;0.00;;;19.60;99.90;;;;;;5104509;28;20027;-72
2023/08/17 04:19:58;;;;;;;0.00;0.00;;;19.60;99.90;;;;;;5104059;28;20030;-71
2023/08/17 04:22:24;;;;;;;0.17;0.10;;;19.50;99.90;;;;;;5108758;28;20055;-72
2023/08/17 04:24:50;;;;;;;0.00;0.00;;;19.50;99.90;;;;;;5108652;28;20058;-73
2023/08/17 04:27:16;;;;;;;0.20;0.20;;;19.60;99.90;;;;;;5101139;28;20032;-72
2023/08/17 04:29:43;;;;;;;0.20;0.20;;;19.50;99.90;;;;;;5091383;28;20018;-71
2023/08/17 04:32:15;;;;;;;0.32;0.32;;;19.50;99.90;;;;;;5112933;28;20031;-71
2023/08/17 04:34:43;;;;;;;0.10;0.10;;;19.40;99.90;;;;;;5096712;28;20028;-72
2023/08/17 04:37:09;;;;;;;0.10;0.10;;;19.40;99.90;;;;;;5096643;28;20392;-73
2023/08/17 04:39:35;;;;;;;0.20;0.20;;;19.50;99.90;;;;;;5095656;28;20111;-71
2023/08/17 04:42:03;;;;;;;0.38;0.38;;;19.50;99.90;;;;;;5108180;28;20275;-70
2023/08/17 04:44:32;;;;;;;0.00;0.00;;;19.50;99.90;;;;;;5113161;28;20020;-71
2023/08/17 04:46:59;;;;;;;0.30;0.30;;;19.50;99.90;;;;;;5096747;28;20028;-73
2023/08/17 04:49:26;;;;;;;0.28;0.28;;;19.50;99.90;;;;;;5095158;28;20020;-79
2023/08/17 04:51:52;;;;;;;0.00;0.00;;;19.40;99.90;;;;;;5099074;28;20483;-71
2023/08/17 04:54:18;;;;;;;0.17;0.17;;;19.40;99.90;;;;;;5097644;28;20101;-82
2023/08/17 04:56:45;;;;;;;0.05;0.05;;;19.40;99.90;;;;;;5104578;28;20016;-84
2023/08/17 04:59:11;;;;;;;0.10;0.10;;;19.30;99.90;;;;;;5100332;28;20392;-72
2023/08/17 05:01:38;;;;;;;0.30;0.30;;;19.30;99.90;;;;;;5106329;28;20497;-71
2023/08/17 05:04:04;;;;;;;0.00;0.00;;;19.40;99.90;;;;;;5098605;28;20035;-71
2023/08/17 05:06:31;;;;;;;0.88;0.40;;;19.40;99.90;;;;;;5098681;28;20549;-71
2023/08/17 05:08:58;;;;;;;0.00;0.00;;;19.40;99.90;;;;;;5101509;28;20026;-71
2023/08/17 05:11:24;;;;;;;0.10;0.10;;;19.40;99.90;;;;;;5099825;28;20114;-72
2023/08/17 05:13:50;;;;;;;0.05;0.05;;;19.40;99.90;;;;;;5106065;28;20027;-71
2023/08/17 05:16:16;;;;;;;0.00;0.00;;;19.40;99.90;;;;;;5101622;28;20028;-71
2023/08/17 05:18:42;;;;;;;0.10;0.10;;;19.40;99.90;;;;;;5109802;28;20028;-71
2023/08/17 05:21:11;;;;;;;0.00;0.00;;;19.40;99.90;;;;;;5103130;28;20542;-75
2023/08/17 05:23:36;;;;;;;0.00;0.00;;;19.40;99.90;;;;;;5092013;28;20032;-79
2023/08/17 05:26:02;;;;;;;0.10;0.10;;;19.50;99.90;;;;;;5102772;28;20055;-79
2023/08/17 05:28:29;;;;;;;1.17;0.63;;;19.60;99.90;;;;;;5095722;28;20027;-73
2023/08/17 05:30:55;;;;;;;0.00;0.00;;;19.50;99.90;;;;;;5100664;28;20026;-73
2023/08/17 05:33:21;;;;;;;0.10;0.10;;;19.50;99.90;;;;;;5093474;28;20119;-74
2023/08/17 05:35:53;;;;;;;0.00;0.00;;;19.50;99.90;;;;;;5104382;28;20084;-73
2023/08/17 05:38:19;;;;;;;0.00;0.00;;;19.60;99.90;;;;;;5078718;28;20479;-73
2023/08/17 05:40:45;;;;;;;0.00;0.00;;;19.50;99.90;;;;;;5107139;28;20025;-73
2023/08/17 05:43:12;;;;;;;0.00;0.00;;;19.50;99.90;;;;;;5108544;28;20189;-73
2023/08/17 05:45:38;;;;;;;0.00;0.00;;;19.50;99.90;;;;;;5107577;28;20019;-73
2023/08/17 05:48:05;;;;;;;0.10;0.10;;;19.50;99.90;;;;;;5102641;28;20115;-73
2023/08/17 05:50:32;;;;;;;0.10;0.10;;;19.60;99.90;;;;;;5105969;28;20035;-73
2023/08/17 05:52:58;;;;;;;0.00;0.00;;;19.50;99.90;;;;;;5104109;28;20031;-73
2023/08/17 05:55:23;;;;;;;0.20;0.20;;;19.40;99.90;;;;;;5103376;28;20024;-73
2023/08/17 05:57:49;;;;;;;0.00;0.00;;;19.30;99.90;;;;;;5101630;28;20016;-73
2023/08/17 06:00:15;;;;;;;0.40;0.20;;;19.10;99.90;;;;;;5108663;28;20415;-73
2023/08/17 06:02:42;;;;;;;0.00;0.00;;;19.30;99.90;;;;;;5100715;28;20023;-73
2023/08/17 06:05:08;;;;;;;0.25;0.25;;;19.50;99.90;;;;;;5109504;28;20129;-75
2023/08/17 06:07:34;;;;;;;0.05;0.05;;;19.50;99.90;;;;;;5108563;28;20032;-78
2023/08/17 06:10:03;;;;;;;0.00;0.00;;;19.40;99.90;;;;;;5101255;28;20027;-75
2023/08/17 06:12:29;;;;;;;0.00;0.00;;;19.50;99.90;;;;;;5093430;28;20039;-77
2023/08/17 06:14:55;;;;;;;0.00;0.00;;;19.30;99.90;;;;;;5096491;28;20387;-75
2023/08/17 06:17:21;;;;;;;0.05;0.05;;;19.40;99.90;;;;;;5104430;28;20059;-75
2023/08/17 06:19:47;;;;;;;1.48;0.28;;;19.60;99.90;;;;;;5096227;28;20028;-76
2023/08/17 06:22:13;;;;;;;0.65;0.08;;;19.60;99.90;;;;;;5093987;28;20031;-75
2023/08/17 06:24:39;;;;;;;0.17;0.17;;;19.40;99.90;;;;;;5096171;28;20058;-75
2023/08/17 06:27:04;;;;;;;0.32;0.30;;;19.40;99.90;;;;;;5106839;28;20036;-71
2023/08/17 06:29:30;;;;;;;0.20;0.20;;;19.50;99.90;;;;;;5101022;28;20074;-72
2023/08/17 06:31:56;;;;;;;0.00;0.00;;;19.50;99.90;;;;;;5096133;28;20018;-72
2023/08/17 06:34:22;;;;;;;0.10;0.10;;;19.60;99.90;;;;;;5093598;28;20089;-72
2023/08/17 06:36:58;;;;;;;0.00;0.00;;;19.70;99.90;;;;;;5108389;28;20468;-71
2023/08/17 06:39:24;;;;;;;0.00;0.00;;;19.70;99.90;;;;;;5105679;28;20387;-71
2023/08/17 06:41:50;;;;;;;0.00;0.00;;;19.80;99.90;;;;;;5095792;28;20028;-73
2023/08/17 06:44:16;;;;;;;0.03;0.03;;;19.70;99.90;;;;;;5099132;28;20036;-71
2023/08/17 06:46:42;;;;;;;0.22;0.22;;;19.80;99.90;;;;;;5098761;28;20043;-72
2023/08/17 06:49:08;;;;;;;0.20;0.20;;;19.80;99.90;;;;;;5097349;28;20069;-76
2023/08/17 06:51:34;;;;;;;0.00;0.00;;;20.00;99.90;;;;;;5104133;28;20436;-73
2023/08/17 06:54:00;;;;;;;0.43;0.40;;;20.10;99.90;;;;;;5107406;28;20024;-77
2023/08/17 06:56:26;;;;;;;0.10;0.10;;;20.30;99.90;;;;;;5100954;28;20054;-72
2023/08/17 06:58:51;;;;;;;0.10;0.10;;;20.40;99.90;;;;;;5091505;28;20074;-71
2023/08/17 07:01:17;;;;;;;0.40;0.40;;;20.70;99.90;;;;;;5090421;28;20472;-79
2023/08/17 07:03:43;;;;;;;0.15;0.15;;;20.40;99.90;;;;;;5085399;28;20583;-81
2023/08/17 07:06:10;;;;;;;0.17;0.17;;;20.40;99.90;;;;;;5079044;28;20043;-76
2023/08/17 07:08:35;;;;;;;5.28;0.73;;;20.50;99.90;;;;;;5090523;28;20036;-74
2023/08/17 07:11:03;;;;;;;0.00;0.00;;;20.20;99.90;;;;;;5093572;28;20028;-77
2023/08/17 07:13:29;;;;;;;0.10;0.10;;;20.30;99.90;;;;;;5101039;28;20016;-73
2023/08/17 07:15:55;;;;;;;0.63;0.30;;;20.20;99.90;;;;;;5093262;28;20050;-73
2023/08/17 07:18:20;;;;;;;0.10;0.10;;;19.80;99.90;;;;;;5096125;28;20025;-73
2023/08/17 07:20:46;;;;;;;0.00;0.00;;;19.60;99.90;;;;;;5095345;28;20032;-73
2023/08/17 07:23:12;;;;;;;0.22;0.22;;;19.90;99.90;;;;;;5096620;28;20020;-77
2023/08/17 07:25:38;;;;;;;0.00;0.00;;;20.10;99.90;;;;;;5102042;28;20051;-76
2023/08/17 07:28:04;;;;;;;0.40;0.17;;;20.40;99.90;;;;;;5095718;28;20491;-74
2023/08/17 07:30:30;;;;;;;0.00;0.00;;;20.80;99.90;;;;;;5094864;28;20034;-76
2023/08/17 07:32:55;;;;;;;0.00;0.00;;;20.90;99.90;;;;;;5098065;28;20020;-74
2023/08/17 07:35:21;;;;;;;0.17;0.17;;;21.20;99.90;;;;;;5094055;28;20255;-73
2023/08/17 07:37:47;;;;;;;0.00;0.00;;;21.20;99.90;;;;;;5094191;28;20055;-73
2023/08/17 07:40:13;;;;;;;0.22;0.15;;;21.50;99.90;;;;;;5095160;28;20020;-73
2023/08/17 07:42:39;;;;;;;0.17;0.17;;;21.50;99.90;;;;;;5097986;28;20024;-74
2023/08/17 07:45:06;;;;;;;0.30;0.30;;;21.50;99.90;;;;;;5093962;28;20111;-75
2023/08/17 07:47:36;;;;;;;2.38;0.38;;;21.50;99.90;;;;;;5095396;28;20032;-73
2023/08/17 07:50:03;;;;;;;0.20;0.20;;;21.20;99.90;;;;;;5085985;28;20031;-73
2023/08/17 07:52:29;;;;;;;0.85;0.30;;;21.10;99.90;;;;;;5089861;28;20063;-75
2023/08/17 07:54:54;;;;;;;0.30;0.30;;;21.00;99.90;;;;;;5087251;28;20045;-73
2023/08/17 07:57:20;;;;;;;0.80;0.30;;;21.30;99.90;;;;;;5093507;28;20473;-73
2023/08/17 07:59:46;;;;;;;0.10;0.10;;;20.80;99.90;;;;;;5096194;28;20345;-75
2023/08/17 08:02:12;;;;;;;0.10;0.10;;;21.20;99.90;;;;;;5099180;28;20028;-74
2023/08/17 08:04:37;;;;;;;2.92;1.65;;;21.20;99.90;;;;;;5090509;28;20031;-73
2023/08/17 08:07:03;;;;;;;0.00;0.00;;;21.70;99.90;;;;;;5089148;28;20449;-74
2023/08/17 08:09:29;;;;;;;0.00;0.00;;;21.80;99.90;;;;;;5094191;28;20036;-74
2023/08/17 08:11:55;;;;;;;0.10;0.10;;;21.50;99.90;;;;;;5095207;28;20030;-74
2023/08/17 08:14:21;;;;;;;0.00;0.00;;;21.80;99.90;;;;;;5095116;28;20464;-73
2023/08/17 08:16:47;;;;;;;0.00;0.00;;;22.00;99.90;;;;;;5095261;28;20027;-76
2023/08/17 08:19:13;;;;;;;0.20;0.20;;;21.90;99.90;;;;;;5093509;28;20032;-79
2023/08/17 08:21:38;;;;;;;0.00;0.00;;;22.10;99.90;;;;;;5094739;28;20384;-76
2023/08/17 08:24:04;;;;;;;0.10;0.10;;;21.90;99.90;;;;;;5094631;28;20032;-73
2023/08/17 08:26:30;;;;;;;0.00;0.00;;;22.00;99.90;;;;;;5094359;28;20039;-77
2023/08/17 08:28:56;;;;;;;0.00;0.00;;;22.40;99.90;;;;;;5093313;28;20028;-79
2023/08/17 08:31:22;;;;;;;1.13;1.10;;;22.60;99.90;;;;;;5092631;28;20114;-74
2023/08/17 08:33:47;;;;;;;0.30;0.30;;;22.40;99.90;;;;;;5092131;28;20050;-78
2023/08/17 08:36:13;;;;;;;0.55;0.30;;;22.80;99.90;;;;;;5093111;28;20216;-75
2023/08/17 08:38:39;;;;;;;0.00;0.00;;;23.30;99.90;;;;;;5094045;28;20416;-74
2023/08/17 08:41:08;;;;;;;0.00;0.00;;;23.20;99.90;;;;;;5092634;28;20059;-75
2023/08/17 08:43:34;;;;;;;0.00;0.00;;;23.40;99.90;;;;;;5093256;28;20523;-75
2023/08/17 08:46:00;;;;;;;0.03;0.03;;;23.50;99.90;;;;;;5094469;28;20051;-75
2023/08/17 08:48:27;;;;;;;0.00;0.00;;;23.10;99.90;;;;;;5092723;28;20110;-76
2023/08/17 08:50:56;;;;;;;0.00;0.00;;;23.00;99.90;;;;;;5074188;28;20043;-77
2023/08/17 08:53:31;;;;;;;0.43;0.43;;;23.20;99.90;;;;;;5092596;28;20027;-76
2023/08/17 08:56:01;;;;;;;0.20;0.20;;;23.00;99.90;;;;;;5092334;28;20020;-75
2023/08/17 08:58:28;;;;;;;0.00;0.00;;;22.70;99.90;;;;;;5091563;28;20135;-76
2023/08/17 09:00:55;;;;;;;0.00;0.00;;;22.10;99.90;;;;;;5093155;28;20028;-75
2023/08/17 09:03:22;;;;;;;0.55;0.55;;;22.00;99.90;;;;;;5093763;28;20043;-75
2023/08/17 09:05:49;;;;;;;0.35;0.35;;;22.60;99.90;;;;;;5094080;28;20027;-74
2023/08/17 09:08:18;;;;;;;0.00;0.00;;;22.70;99.90;;;;;;5094461;28;20435;-74
2023/08/17 09:10:44;;;;;;;0.10;0.10;;;22.70;99.90;;;;;;5094076;28;20059;-75
2023/08/17 09:13:10;;;;;;;0.00;0.00;;;23.10;99.90;;;;;;5094076;28;20071;-74
2023/08/17 09:15:36;;;;;;;0.03;0.03;;;23.20;99.90;;;;;;5093909;28;20030;-73
2023/08/17 09:18:07;;;;;;;0.00;0.00;;;23.10;99.90;;;;;;5093724;28;20099;-75
2023/08/17 09:20:44;;;;;;;0.30;0.22;;;22.60;99.90;;;;;;5094136;28;20024;-74
2023/08/17 09:23:13;;;;;;;0.08;0.08;;;22.50;99.90;;;;;;5093957;28;20031;-73
2023/08/17 09:25:40;;;;;;;0.45;0.30;;;22.70;99.90;;;;;;5094043;28;20027;-73
2023/08/17 09:28:14;;;;;;;0.03;0.03;;;22.90;99.90;;;;;;5092654;28;20480;-73
2023/08/17 09:30:53;;;;;;;0.28;0.28;;;23.30;99.90;;;;;;5091797;28;20020;-73
2023/08/17 09:33:21;;;;;;;0.50;0.50;;;23.80;99.90;;;;;;5091323;28;20032;-73
2023/08/17 09:35:48;;;;;;;0.20;0.20;;;24.00;99.90;;;;;;5091881;28;20087;-73
2023/08/17 09:38:14;;;;;;;0.13;0.13;;;24.00;99.90;;;;;;5090089;28;20500;-73
2023/08/17 09:40:40;;;;;;;0.00;0.00;;;24.30;99.90;;;;;;5092079;28;20020;-73
2023/08/17 09:43:06;;;;;;;0.10;0.10;;;24.80;99.90;;;;;;5092369;28;20517;-74
2023/08/17 09:45:32;;;;;;;0.00;0.00;;;24.60;99.90;;;;;;5093542;28;20383;-73
2023/08/17 09:48:00;;;;;;;0.10;0.10;;;25.20;99.90;;;;;;5093256;28;20040;-74
2023/08/17 09:50:26;;;;;;;0.10;0.10;;;24.90;99.90;;;;;;5093400;28;20012;-74
2023/08/17 09:52:54;;;;;;;0.10;0.10;;;24.50;99.90;;;;;;5093474;28;20388;-78
2023/08/17 09:55:22;;;;;;;0.00;0.00;;;24.40;99.90;;;;;;5093321;28;20526;-74
2023/08/17 09:57:52;;;;;;;0.03;0.03;;;24.80;99.90;;;;;;5093297;28;20400;-76
2023/08/17 10:00:20;;;;;;;0.10;0.10;;;24.90;99.90;;;;;;5093212;28;20063;-79
2023/08/17 10:02:50;;;;;;;0.57;0.57;;;24.70;99.90;;;;;;5091829;28;20083;-75
2023/08/17 10:05:19;;;;;;;0.17;0.17;;;24.30;99.90;;;;;;5093008;28;20031;-74
2023/08/17 10:07:54;;;;;;;0.30;0.30;;;24.20;99.90;;;;;;5091523;28;20496;-82
2023/08/17 10:10:26;;;;;;;0.90;0.52;;;24.70;99.90;;;;;;5093254;28;20499;-76
2023/08/17 10:13:09;;;;;;;0.00;0.00;;;24.50;99.90;;;;;;5091688;28;20028;-73
2023/08/17 10:15:44;;;;;;;0.00;0.00;;;24.10;99.90;;;;;;5091403;28;20476;-73
2023/08/17 10:18:39;;;;;;;1.17;1.08;;;24.20;99.90;;;;;;5092824;28;20031;-75
2023/08/17 10:21:27;;;;;;;2.10;1.40;;;23.90;99.90;;;;;;5092687;28;20032;-76
2023/08/17 10:23:55;;;;;;;0.70;0.63;;;23.50;99.90;;;;;;5092749;28;20090;-73
2023/08/17 10:26:22;;;;;;;3.10;0.88;;;23.50;99.90;;;;;;5092755;28;20050;-74
2023/08/17 10:28:48;;;;;;;0.00;0.00;;;23.10;99.90;;;;;;5092752;28;20530;-74
2023/08/17 10:31:14;;;;;;;0.10;0.10;;;23.40;99.90;;;;;;5092493;28;20039;-74
2023/08/17 10:33:43;;;;;;;3.55;0.75;;;23.70;99.90;;;;;;5092283;28;20039;-75
2023/08/17 10:36:10;;;;;;;0.00;0.00;;;23.50;99.90;;;;;;5092727;28;20042;-75
2023/08/17 10:38:35;;;;;;;0.40;0.40;;;23.30;99.90;;;;;;5092488;28;20016;-73
2023/08/17 10:41:11;;;;;;;0.60;0.60;;;23.10;99.90;;;;;;5092855;28;20199;-75
2023/08/17 10:43:57;;;;;;;0.10;0.10;;;23.30;99.90;;;;;;5092425;28;20103;-74
2023/08/17 10:46:37;;;;;;;0.00;0.00;;;23.20;99.90;;;;;;5092520;28;20081;-74
2023/08/17 10:49:23;;;;;;;0.00;0.00;;;23.30;99.90;;;;;;5092518;28;20042;-81
2023/08/17 10:52:06;;;;;;;0.10;0.10;;;23.60;99.90;;;;;;5095839;28;20031;-73
2023/08/17 10:54:42;;;;;;;0.08;0.08;;;23.40;99.90;;;;;;5096716;28;20023;-80
2023/08/17 10:57:28;;;;;;;0.20;0.20;;;23.40;99.90;;;;;;5096650;28;20028;-74
2023/08/17 11:00:24;;;;;;;0.00;0.00;;;23.00;99.90;;;;;;5096559;28;20518;-78
2023/08/17 11:02:55;;;;;;;0.00;0.00;;;23.20;99.90;;;;;;5097661;28;20070;-77
2023/08/17 11:05:43;;;;;;;0.00;0.00;;;23.30;99.90;;;;;;5097328;28;20074;-74
2023/08/17 11:08:13;;;;;;;0.00;0.00;;;23.50;99.90;;;;;;5098470;28;20024;-73
2023/08/17 11:10:39;;;;;;;0.08;0.08;;;23.50;99.90;;;;;;5097426;28;20437;-73
2023/08/17 11:13:07;;;;;;;0.10;0.10;;;23.50;99.90;;;;;;5098604;28;20024;-73
2023/08/17 11:15:43;;;;;;;0.00;0.00;;;23.50;99.90;;;;;;5097365;28;20032;-74
2023/08/17 11:18:10;;;;;;;0.00;0.00;;;24.10;99.90;;;;;;5097447;28;20035;-75
2023/08/17 11:20:38;;;;;;;0.10;0.10;;;24.10;99.90;;;;;;5097734;28;20024;-74
2023/08/17 11:23:07;;;;;;;0.05;0.05;;;23.70;99.90;;;;;;5097496;28;20034;-74
2023/08/17 11:25:37;;;;;;;0.47;0.38;;;23.70;99.90;;;;;;5097956;28;20052;-75
2023/08/17 11:28:03;;;;;;;0.00;0.00;;;23.90;99.90;;;;;;5096340;28;20498;-73
2023/08/17 11:30:29;;;;;;;0.32;0.32;;;23.90;99.90;;;;;;5096055;28;20038;-73
2023/08/17 11:32:56;;;;;;;0.95;0.28;;;23.50;99.90;;;;;;5095800;28;20480;-73
2023/08/17 11:35:22;;;;;;;0.73;0.52;;;23.90;99.90;;;;;;5095996;28;20479;-73
2023/08/17 11:37:49;;;;;;;0.00;0.00;;;24.10;99.90;;;;;;5095769;28;20035;-73
2023/08/17 11:40:15;;;;;;;0.10;0.10;;;24.20;99.90;;;;;;5094611;28;20035;-73
2023/08/17 11:42:42;;;;;;;40.42;11.73;;;24.60;99.90;;;;;;5095566;28;20032;-73
2023/08/17 11:45:09;;;;;;;0.08;0.08;;;24.70;99.90;;;;;;5095637;28;20023;-74
2023/08/17 11:47:37;;;;;;;0.20;0.20;;;24.70;99.90;;;;;;5095500;28;20061;-73
2023/08/17 11:50:04;;;;;;;0.22;0.22;;;24.80;99.90;;;;;;5095506;28;20024;-73
2023/08/17 11:52:36;;;;;;;0.00;0.00;;;24.80;99.90;;;;;;5095870;28;20081;-73
2023/08/17 11:55:06;;;;;;;0.10;0.10;;;24.50;99.90;;;;;;5095588;28;20093;-73
2023/08/17 11:57:33;;;;;;;0.00;0.00;;;24.40;99.90;;;;;;5094032;28;20060;-73
2023/08/17 12:00:00;;;;;;;0.10;0.10;;;24.10;99.90;;;;;;5095364;28;20494;-73
2023/08/17 12:02:30;;;;;;;0.00;0.00;;;23.70;99.90;;;;;;5092954;28;20020;-73
2023/08/17 12:04:57;;;;;;;2.13;0.75;;;23.70;99.90;;;;;;5095014;28;20039;-73
2023/08/17 12:07:25;;;;;;;0.08;0.08;;;23.70;99.90;;;;;;5095267;28;20043;-74
2023/08/17 12:09:52;;;;;;;0.10;0.10;;;23.50;99.90;;;;;;5095263;28;20031;-73
2023/08/17 12:12:21;;;;;;;0.65;0.65;;;23.30;99.90;;;;;;5093444;28;20361;-75
2023/08/17 12:14:47;;;;;;;0.50;0.50;;;23.20;99.90;;;;;;5094749;28;20464;-72
2023/08/17 12:17:18;;;;;;;0.10;0.10;;;23.30;99.90;;;;;;5094001;28;20028;-74
2023/08/17 12:19:44;;;;;;;0.17;0.17;;;23.20;99.90;;;;;;5093878;28;20020;-72
2023/08/17 12:22:12;;;;;;;0.25;0.25;;;23.60;99.90;;;;;;5093376;28;20293;-74
2023/08/17 12:24:38;;;;;;;0.00;0.00;;;23.70;99.90;;;;;;5093673;28;20016;-73
2023/08/17 12:27:08;;;;;;;0.00;0.00;;;24.10;99.90;;;;;;5094318;28;20047;-74
2023/08/17 12:29:45;;;;;;;0.55;0.52;;;24.60;99.90;;;;;;5094675;28;20020;-74
2023/08/17 12:32:11;;;;;;;0.30;0.25;;;24.80;99.90;;;;;;5092981;28;20076;-75
2023/08/17 12:34:37;;;;;;;0.00;0.00;;;24.40;99.90;;;;;;5094007;28;20468;-75
2023/08/17 12:37:03;;;;;;;0.30;0.30;;;24.70;99.90;;;;;;5093186;28;20388;-74
2023/08/17 12:39:29;;;;;;;0.13;0.13;;;24.40;99.90;;;;;;5094689;28;20020;-74
2023/08/17 12:41:55;;;;;;;0.00;0.00;;;24.40;99.90;;;;;;5094207;28;20468;-74
2023/08/17 12:44:21;;;;;;;0.95;0.45;;;24.40;99.90;;;;;;5094457;28;20020;-73
2023/08/17 12:46:46;;;;;;;0.22;0.22;;;25.10;99.90;;;;;;5093726;28;20043;-75